sensor_id;sensor_type;location;lat;lon;timestamp;temperature;humidity
52036;DHT22;38046;49.448;32.074;2023-04-24T00:00:47;12.50;60.70
52036;DHT22;38046;49.448;32.074;2023-04-24T00:03:13;12.50;60.80
52036;DHT22;38046;49.448;32.074;2023-04-24T00:05:38;12.50;60.90
52036;DHT22;38046;49.448;32.074;2023-04-24T00:08:06;12.40;61.00
52036;DHT22;38046;49.448;32.074;2023-04-24T00:10:31;12.40;61.20
52036;DHT22;38046;49.448;32.074;2023-04-24T00:12:57;12.40;61.20
52036;DHT22;38046;49.448;32.074;2023-04-24T00:15:23;12.40;61.20
52036;DHT22;38046;49.448;32.074;2023-04-24T00:17:48;12.40;61.30
52036;DHT22;38046;49.448;32.074;2023-04-24T00:20:15;12.40;61.40
52036;DHT22;38046;49.448;32.074;2023-04-24T00:22:41;12.40;61.60
52036;DHT22;38046;49.448;32.074;2023-04-24T00:25:07;12.30;61.60
52036;DHT22;38046;49.448;32.074;2023-04-24T00:27:32;12.30;61.60
52036;DHT22;38046;49.448;32.074;2023-04-24T00:29:58;12.30;61.70
52036;DHT22;38046;49.448;32.074;2023-04-24T00:32:24;12.30;61.90
52036;DHT22;38046;49.448;32.074;2023-04-24T00:34:49;12.30;61.90
52036;DHT22;38046;49.448;32.074;2023-04-24T00:37:15;12.30;61.90
52036;DHT22;38046;49.448;32.074;2023-04-24T00:39:41;12.30;62.00
52036;DHT22;38046;49.448;32.074;2023-04-24T00:42:06;12.30;62.10
52036;DHT22;38046;49.448;32.074;2023-04-24T00:44:35;12.30;62.20
52036;DHT22;38046;49.448;32.074;2023-04-24T00:47:01;12.30;62.30
52036;DHT22;38046;49.448;32.074;2023-04-24T00:49:27;12.30;62.40
52036;DHT22;38046;49.448;32.074;2023-04-24T00:51:53;12.30;62.50
52036;DHT22;38046;49.448;32.074;2023-04-24T00:54:19;12.30;62.50
52036;DHT22;38046;49.448;32.074;2023-04-24T00:56:46;12.20;62.60
52036;DHT22;38046;49.448;32.074;2023-04-24T00:59:12;12.20;62.70
52036;DHT22;38046;49.448;32.074;2023-04-24T01:01:39;12.20;62.80
52036;DHT22;38046;49.448;32.074;2023-04-24T01:04:07;12.20;63.50
52036;DHT22;38046;49.448;32.074;2023-04-24T01:06:34;12.10;62.90
52036;DHT22;38046;49.448;32.074;2023-04-24T01:09:00;12.20;63.10
52036;DHT22;38046;49.448;32.074;2023-04-24T01:11:26;12.20;63.20
52036;DHT22;38046;49.448;32.074;2023-04-24T01:13:52;12.20;63.30
52036;DHT22;38046;49.448;32.074;2023-04-24T01:16:19;12.20;63.40
52036;DHT22;38046;49.448;32.074;2023-04-24T01:18:46;12.20;63.60
52036;DHT22;38046;49.448;32.074;2023-04-24T01:21:14;12.20;63.80
52036;DHT22;38046;49.448;32.074;2023-04-24T01:23:43;12.20;64.00
52036;DHT22;38046;49.448;32.074;2023-04-24T01:26:08;12.20;64.00
52036;DHT22;38046;49.448;32.074;2023-04-24T01:28:34;12.20;64.10
52036;DHT22;38046;49.448;32.074;2023-04-24T01:31:00;12.10;64.20
52036;DHT22;38046;49.448;32.074;2023-04-24T01:33:25;12.10;64.40
52036;DHT22;38046;49.448;32.074;2023-04-24T01:35:51;12.10;64.40
52036;DHT22;38046;49.448;32.074;2023-04-24T01:38:17;12.10;64.50
52036;DHT22;38046;49.448;32.074;2023-04-24T01:40:43;12.10;65.40
52036;DHT22;38046;49.448;32.074;2023-04-24T01:43:08;12.10;65.10
52036;DHT22;38046;49.448;32.074;2023-04-24T01:45:34;12.10;65.20
52036;DHT22;38046;49.448;32.074;2023-04-24T01:48:00;12.10;65.20
52036;DHT22;38046;49.448;32.074;2023-04-24T01:50:26;12.00;65.30
52036;DHT22;38046;49.448;32.074;2023-04-24T01:52:52;12.00;65.40
52036;DHT22;38046;49.448;32.074;2023-04-24T01:55:17;12.00;65.50
52036;DHT22;38046;49.448;32.074;2023-04-24T01:57:43;11.90;65.50
52036;DHT22;38046;49.448;32.074;2023-04-24T02:00:10;11.90;65.80
52036;DHT22;38046;49.448;32.074;2023-04-24T02:02:37;11.90;65.90
52036;DHT22;38046;49.448;32.074;2023-04-24T02:05:06;11.90;66.50
52036;DHT22;38046;49.448;32.074;2023-04-24T02:07:32;11.90;65.90
52036;DHT22;38046;49.448;32.074;2023-04-24T02:09:58;11.90;65.80
52036;DHT22;38046;49.448;32.074;2023-04-24T02:12:23;11.90;65.90
52036;DHT22;38046;49.448;32.074;2023-04-24T02:14:49;11.90;66.10
52036;DHT22;38046;49.448;32.074;2023-04-24T02:17:15;11.90;66.30
52036;DHT22;38046;49.448;32.074;2023-04-24T02:19:41;11.90;66.50
52036;DHT22;38046;49.448;32.074;2023-04-24T02:22:07;11.90;66.60
52036;DHT22;38046;49.448;32.074;2023-04-24T02:24:32;11.90;66.80
52036;DHT22;38046;49.448;32.074;2023-04-24T02:26:58;11.80;66.70
52036;DHT22;38046;49.448;32.074;2023-04-24T02:29:24;11.80;66.70
52036;DHT22;38046;49.448;32.074;2023-04-24T02:31:49;11.80;66.70
52036;DHT22;38046;49.448;32.074;2023-04-24T02:34:15;11.80;66.80
52036;DHT22;38046;49.448;32.074;2023-04-24T02:36:41;11.80;66.90
52036;DHT22;38046;49.448;32.074;2023-04-24T02:39:07;11.80;66.90
52036;DHT22;38046;49.448;32.074;2023-04-24T02:41:33;11.70;67.40
52036;DHT22;38046;49.448;32.074;2023-04-24T02:43:59;11.80;66.80
52036;DHT22;38046;49.448;32.074;2023-04-24T02:46:25;11.70;66.80
52036;DHT22;38046;49.448;32.074;2023-04-24T02:48:51;11.70;67.00
52036;DHT22;38046;49.448;32.074;2023-04-24T02:51:17;11.70;67.10
52036;DHT22;38046;49.448;32.074;2023-04-24T02:53:43;11.70;67.10
52036;DHT22;38046;49.448;32.074;2023-04-24T02:56:08;11.70;67.10
52036;DHT22;38046;49.448;32.074;2023-04-24T02:58:37;11.60;67.20
52036;DHT22;38046;49.448;32.074;2023-04-24T03:01:03;11.70;67.30
52036;DHT22;38046;49.448;32.074;2023-04-24T03:03:29;11.70;67.40
52036;DHT22;38046;49.448;32.074;2023-04-24T03:05:54;11.70;67.50
52036;DHT22;38046;49.448;32.074;2023-04-24T03:08:22;11.70;67.70
52036;DHT22;38046;49.448;32.074;2023-04-24T03:10:48;11.70;67.90
52036;DHT22;38046;49.448;32.074;2023-04-24T03:13:14;11.70;68.00
52036;DHT22;38046;49.448;32.074;2023-04-24T03:15:40;11.70;68.10
52036;DHT22;38046;49.448;32.074;2023-04-24T03:18:06;11.70;68.30
52036;DHT22;38046;49.448;32.074;2023-04-24T03:20:31;11.70;68.50
52036;DHT22;38046;49.448;32.074;2023-04-24T03:22:57;11.80;68.80
52036;DHT22;38046;49.448;32.074;2023-04-24T03:25:22;11.80;68.80
52036;DHT22;38046;49.448;32.074;2023-04-24T03:27:48;11.90;68.70
52036;DHT22;38046;49.448;32.074;2023-04-24T03:30:14;11.90;68.70
52036;DHT22;38046;49.448;32.074;2023-04-24T03:32:39;12.00;68.90
52036;DHT22;38046;49.448;32.074;2023-04-24T03:35:06;12.00;68.80
52036;DHT22;38046;49.448;32.074;2023-04-24T03:37:33;12.00;68.70
52036;DHT22;38046;49.448;32.074;2023-04-24T03:39:59;12.10;68.40
52036;DHT22;38046;49.448;32.074;2023-04-24T03:42:25;12.20;69.00
52036;DHT22;38046;49.448;32.074;2023-04-24T03:44:50;12.20;68.30
52036;DHT22;38046;49.448;32.074;2023-04-24T03:47:16;12.30;68.20
52036;DHT22;38046;49.448;32.074;2023-04-24T03:49:41;12.40;68.10
52036;DHT22;38046;49.448;32.074;2023-04-24T03:52:07;12.60;68.00
52036;DHT22;38046;49.448;32.074;2023-04-24T03:54:33;12.70;68.10
52036;DHT22;38046;49.448;32.074;2023-04-24T03:56:58;12.90;68.30
52036;DHT22;38046;49.448;32.074;2023-04-24T03:59:24;13.20;68.40
52036;DHT22;38046;49.448;32.074;2023-04-24T04:01:50;13.40;68.30
52036;DHT22;38046;49.448;32.074;2023-04-24T04:04:15;13.60;67.90
52036;DHT22;38046;49.448;32.074;2023-04-24T04:06:41;13.90;67.20
52036;DHT22;38046;49.448;32.074;2023-04-24T04:09:07;14.10;66.50
52036;DHT22;38046;49.448;32.074;2023-04-24T04:11:33;14.20;65.80
52036;DHT22;38046;49.448;32.074;2023-04-24T04:14:00;14.40;65.30
52036;DHT22;38046;49.448;32.074;2023-04-24T04:16:26;14.50;64.90
52036;DHT22;38046;49.448;32.074;2023-04-24T04:18:52;14.50;64.40
52036;DHT22;38046;49.448;32.074;2023-04-24T04:21:17;14.60;64.20
52036;DHT22;38046;49.448;32.074;2023-04-24T04:23:43;14.70;63.90
52036;DHT22;38046;49.448;32.074;2023-04-24T04:26:09;14.80;63.70
52036;DHT22;38046;49.448;32.074;2023-04-24T04:28:34;14.90;63.50
52036;DHT22;38046;49.448;32.074;2023-04-24T04:31:00;15.00;63.20
52036;DHT22;38046;49.448;32.074;2023-04-24T04:33:26;15.20;63.10
52036;DHT22;38046;49.448;32.074;2023-04-24T04:35:52;15.30;62.50
52036;DHT22;38046;49.448;32.074;2023-04-24T04:38:19;15.50;62.30
52036;DHT22;38046;49.448;32.074;2023-04-24T04:40:45;15.60;61.90
52036;DHT22;38046;49.448;32.074;2023-04-24T04:43:11;15.80;61.80
52036;DHT22;38046;49.448;32.074;2023-04-24T04:45:38;15.90;61.30
52036;DHT22;38046;49.448;32.074;2023-04-24T04:48:05;16.10;61.10
52036;DHT22;38046;49.448;32.074;2023-04-24T04:50:33;16.30;60.90
52036;DHT22;38046;49.448;32.074;2023-04-24T04:52:59;16.40;60.60
52036;DHT22;38046;49.448;32.074;2023-04-24T04:55:24;16.50;60.40
52036;DHT22;38046;49.448;32.074;2023-04-24T04:57:51;16.60;60.00
52036;DHT22;38046;49.448;32.074;2023-04-24T05:00:17;16.70;59.90
52036;DHT22;38046;49.448;32.074;2023-04-24T05:02:43;16.90;60.10
52036;DHT22;38046;49.448;32.074;2023-04-24T05:05:08;17.20;59.70
52036;DHT22;38046;49.448;32.074;2023-04-24T05:07:34;17.30;59.20
52036;DHT22;38046;49.448;32.074;2023-04-24T05:10:00;17.60;59.00
52036;DHT22;38046;49.448;32.074;2023-04-24T05:12:26;17.80;58.50
52036;DHT22;38046;49.448;32.074;2023-04-24T05:14:52;18.00;58.40
52036;DHT22;38046;49.448;32.074;2023-04-24T05:17:18;18.30;58.20
52036;DHT22;38046;49.448;32.074;2023-04-24T05:19:44;18.70;57.70
52036;DHT22;38046;49.448;32.074;2023-04-24T05:22:09;19.20;57.60
52036;DHT22;38046;49.448;32.074;2023-04-24T05:24:36;19.70;57.20
52036;DHT22;38046;49.448;32.074;2023-04-24T05:27:05;20.30;56.30
52036;DHT22;38046;49.448;32.074;2023-04-24T05:29:31;21.00;55.00
52036;DHT22;38046;49.448;32.074;2023-04-24T05:31:58;21.50;53.50
52036;DHT22;38046;49.448;32.074;2023-04-24T05:34:24;21.70;52.20
52036;DHT22;38046;49.448;32.074;2023-04-24T05:36:50;21.60;51.60
52036;DHT22;38046;49.448;32.074;2023-04-24T05:39:16;21.20;51.50
52036;DHT22;38046;49.448;32.074;2023-04-24T05:41:42;20.70;51.90
52036;DHT22;38046;49.448;32.074;2023-04-24T05:44:07;20.20;52.50
52036;DHT22;38046;49.448;32.074;2023-04-24T05:46:33;19.70;53.00
52036;DHT22;38046;49.448;32.074;2023-04-24T05:48:59;19.40;53.60
52036;DHT22;38046;49.448;32.074;2023-04-24T05:51:24;19.00;54.10
52036;DHT22;38046;49.448;32.074;2023-04-24T05:53:51;18.80;54.80
52036;DHT22;38046;49.448;32.074;2023-04-24T05:56:17;18.60;55.40
52036;DHT22;38046;49.448;32.074;2023-04-24T05:58:42;18.40;55.60
52036;DHT22;38046;49.448;32.074;2023-04-24T06:01:08;18.20;55.90
52036;DHT22;38046;49.448;32.074;2023-04-24T06:03:34;18.00;56.20
52036;DHT22;38046;49.448;32.074;2023-04-24T06:06:00;17.90;56.60
52036;DHT22;38046;49.448;32.074;2023-04-24T06:08:26;17.70;56.60
52036;DHT22;38046;49.448;32.074;2023-04-24T06:10:51;17.60;56.90
52036;DHT22;38046;49.448;32.074;2023-04-24T06:13:17;17.40;57.20
52036;DHT22;38046;49.448;32.074;2023-04-24T06:15:43;17.30;57.10
52036;DHT22;38046;49.448;32.074;2023-04-24T06:18:09;17.30;57.20
52036;DHT22;38046;49.448;32.074;2023-04-24T06:20:38;17.20;57.30
52036;DHT22;38046;49.448;32.074;2023-04-24T06:23:04;17.10;57.40
52036;DHT22;38046;49.448;32.074;2023-04-24T06:25:29;17.00;58.00
52036;DHT22;38046;49.448;32.074;2023-04-24T06:27:56;17.00;58.20
52036;DHT22;38046;49.448;32.074;2023-04-24T06:30:22;17.00;58.60
52036;DHT22;38046;49.448;32.074;2023-04-24T06:32:47;17.00;58.70
52036;DHT22;38046;49.448;32.074;2023-04-24T06:35:13;16.90;58.70
52036;DHT22;38046;49.448;32.074;2023-04-24T06:37:40;16.90;58.90
52036;DHT22;38046;49.448;32.074;2023-04-24T06:40:07;16.90;59.20
52036;DHT22;38046;49.448;32.074;2023-04-24T06:42:33;16.90;59.50
52036;DHT22;38046;49.448;32.074;2023-04-24T06:44:58;16.90;59.70
52036;DHT22;38046;49.448;32.074;2023-04-24T06:47:24;17.00;60.10
52036;DHT22;38046;49.448;32.074;2023-04-24T06:49:50;17.00;60.60
52036;DHT22;38046;49.448;32.074;2023-04-24T06:52:18;17.00;60.50
52036;DHT22;38046;49.448;32.074;2023-04-24T06:54:44;17.00;60.60
52036;DHT22;38046;49.448;32.074;2023-04-24T06:57:10;17.00;60.50
52036;DHT22;38046;49.448;32.074;2023-04-24T06:59:36;17.00;60.70
52036;DHT22;38046;49.448;32.074;2023-04-24T07:02:02;17.00;61.00
52036;DHT22;38046;49.448;32.074;2023-04-24T07:04:28;17.00;61.10
52036;DHT22;38046;49.448;32.074;2023-04-24T07:06:54;17.10;61.10
52036;DHT22;38046;49.448;32.074;2023-04-24T07:09:21;17.10;60.90
52036;DHT22;38046;49.448;32.074;2023-04-24T07:11:47;17.10;61.10
52036;DHT22;38046;49.448;32.074;2023-04-24T07:14:13;17.10;61.80
52036;DHT22;38046;49.448;32.074;2023-04-24T07:16:39;17.10;60.80
52036;DHT22;38046;49.448;32.074;2023-04-24T07:19:05;17.10;60.80
52036;DHT22;38046;49.448;32.074;2023-04-24T07:21:30;17.10;60.70
52036;DHT22;38046;49.448;32.074;2023-04-24T07:24:00;17.10;60.80
52036;DHT22;38046;49.448;32.074;2023-04-24T07:26:28;17.10;60.80
52036;DHT22;38046;49.448;32.074;2023-04-24T07:28:54;17.20;60.90
52036;DHT22;38046;49.448;32.074;2023-04-24T07:31:20;17.20;60.90
52036;DHT22;38046;49.448;32.074;2023-04-24T07:33:46;17.10;60.70
52036;DHT22;38046;49.448;32.074;2023-04-24T07:36:12;17.20;60.60
52036;DHT22;38046;49.448;32.074;2023-04-24T07:38:42;17.10;60.60
52036;DHT22;38046;49.448;32.074;2023-04-24T07:41:08;17.10;60.70
52036;DHT22;38046;49.448;32.074;2023-04-24T07:43:34;17.00;60.90
52036;DHT22;38046;49.448;32.074;2023-04-24T07:46:00;17.00;60.70
52036;DHT22;38046;49.448;32.074;2023-04-24T07:48:25;16.90;60.60
52036;DHT22;38046;49.448;32.074;2023-04-24T07:50:52;16.80;60.60
52036;DHT22;38046;49.448;32.074;2023-04-24T07:53:17;16.80;60.60
52036;DHT22;38046;49.448;32.074;2023-04-24T07:55:43;16.70;60.80
52036;DHT22;38046;49.448;32.074;2023-04-24T07:58:09;16.70;60.80
52036;DHT22;38046;49.448;32.074;2023-04-24T08:00:35;16.60;61.60
52036;DHT22;38046;49.448;32.074;2023-04-24T08:03:01;16.60;61.00
52036;DHT22;38046;49.448;32.074;2023-04-24T08:05:26;16.50;61.30
52036;DHT22;38046;49.448;32.074;2023-04-24T08:07:54;16.50;61.60
52036;DHT22;38046;49.448;32.074;2023-04-24T08:10:21;16.50;61.60
52036;DHT22;38046;49.448;32.074;2023-04-24T08:12:47;16.40;61.60
52036;DHT22;38046;49.448;32.074;2023-04-24T08:15:12;16.40;61.90
52036;DHT22;38046;49.448;32.074;2023-04-24T08:17:38;16.40;62.00
52036;DHT22;38046;49.448;32.074;2023-04-24T08:20:04;16.40;61.80
52036;DHT22;38046;49.448;32.074;2023-04-24T08:22:31;16.40;61.70
52036;DHT22;38046;49.448;32.074;2023-04-24T08:24:59;16.40;61.70
52036;DHT22;38046;49.448;32.074;2023-04-24T08:27:26;16.30;61.50
52036;DHT22;38046;49.448;32.074;2023-04-24T08:29:53;16.30;61.60
52036;DHT22;38046;49.448;32.074;2023-04-24T08:32:19;16.30;61.50
52036;DHT22;38046;49.448;32.074;2023-04-24T08:34:44;16.30;61.60
52036;DHT22;38046;49.448;32.074;2023-04-24T08:37:10;16.30;61.60
52036;DHT22;38046;49.448;32.074;2023-04-24T08:39:37;16.30;61.70
52036;DHT22;38046;49.448;32.074;2023-04-24T08:42:04;16.30;61.70
52036;DHT22;38046;49.448;32.074;2023-04-24T08:44:33;16.30;61.80
52036;DHT22;38046;49.448;32.074;2023-04-24T08:47:01;16.20;61.70
52036;DHT22;38046;49.448;32.074;2023-04-24T08:49:29;16.20;61.50
52036;DHT22;38046;49.448;32.074;2023-04-24T08:51:54;16.20;61.50
52036;DHT22;38046;49.448;32.074;2023-04-24T08:54:21;16.20;61.30
52036;DHT22;38046;49.448;32.074;2023-04-24T08:56:48;16.20;61.10
52036;DHT22;38046;49.448;32.074;2023-04-24T08:59:15;16.20;61.00
52036;DHT22;38046;49.448;32.074;2023-04-24T09:01:41;16.10;61.00
52036;DHT22;38046;49.448;32.074;2023-04-24T09:04:09;16.10;60.90
52036;DHT22;38046;49.448;32.074;2023-04-24T09:06:39;16.10;61.00
52036;DHT22;38046;49.448;32.074;2023-04-24T09:09:05;16.10;61.10
52036;DHT22;38046;49.448;32.074;2023-04-24T09:11:31;16.10;61.10
52036;DHT22;38046;49.448;32.074;2023-04-24T09:14:00;16.00;61.20
52036;DHT22;38046;49.448;32.074;2023-04-24T09:16:27;16.00;61.30
52036;DHT22;38046;49.448;32.074;2023-04-24T09:18:53;16.00;62.20
52036;DHT22;38046;49.448;32.074;2023-04-24T09:21:21;16.00;61.50
52036;DHT22;38046;49.448;32.074;2023-04-24T09:23:57;16.00;61.80
52036;DHT22;38046;49.448;32.074;2023-04-24T09:26:24;15.90;62.00
52036;DHT22;38046;49.448;32.074;2023-04-24T09:28:50;15.80;62.20
52036;DHT22;38046;49.448;32.074;2023-04-24T09:31:18;15.70;62.50
52036;DHT22;38046;49.448;32.074;2023-04-24T09:34:20;15.70;62.90
52036;DHT22;38046;49.448;32.074;2023-04-24T09:36:46;15.60;62.60
52036;DHT22;38046;49.448;32.074;2023-04-24T09:39:14;15.60;62.70
52036;DHT22;38046;49.448;32.074;2023-04-24T09:41:47;15.60;62.80
52036;DHT22;38046;49.448;32.074;2023-04-24T09:44:21;15.70;62.80
52036;DHT22;38046;49.448;32.074;2023-04-24T09:47:08;15.70;62.50
52036;DHT22;38046;49.448;32.074;2023-04-24T09:49:35;15.70;62.40
52036;DHT22;38046;49.448;32.074;2023-04-24T09:52:06;15.70;62.50
52036;DHT22;38046;49.448;32.074;2023-04-24T09:54:32;15.70;62.60
52036;DHT22;38046;49.448;32.074;2023-04-24T09:56:58;15.60;62.60
52036;DHT22;38046;49.448;32.074;2023-04-24T09:59:25;15.60;62.60
52036;DHT22;38046;49.448;32.074;2023-04-24T10:01:51;15.60;62.50
52036;DHT22;38046;49.448;32.074;2023-04-24T10:04:25;15.50;62.20
52036;DHT22;38046;49.448;32.074;2023-04-24T10:06:53;15.50;62.20
52036;DHT22;38046;49.448;32.074;2023-04-24T10:09:21;15.50;62.00
52036;DHT22;38046;49.448;32.074;2023-04-24T10:11:49;15.50;61.90
52036;DHT22;38046;49.448;32.074;2023-04-24T10:14:17;15.60;61.80
52036;DHT22;38046;49.448;32.074;2023-04-24T10:16:44;15.60;61.80
52036;DHT22;38046;49.448;32.074;2023-04-24T10:19:12;15.60;61.70
52036;DHT22;38046;49.448;32.074;2023-04-24T10:21:40;15.60;61.70
52036;DHT22;38046;49.448;32.074;2023-04-24T10:24:15;15.60;61.40
52036;DHT22;38046;49.448;32.074;2023-04-24T10:26:42;15.60;61.20
52036;DHT22;38046;49.448;32.074;2023-04-24T10:29:10;15.60;61.30
52036;DHT22;38046;49.448;32.074;2023-04-24T10:31:38;15.60;61.10
52036;DHT22;38046;49.448;32.074;2023-04-24T10:34:09;15.60;61.10
52036;DHT22;38046;49.448;32.074;2023-04-24T10:36:36;15.70;60.90
52036;DHT22;38046;49.448;32.074;2023-04-24T10:39:07;15.70;61.00
52036;DHT22;38046;49.448;32.074;2023-04-24T10:41:37;15.70;61.00
52036;DHT22;38046;49.448;32.074;2023-04-24T10:44:13;15.70;61.00
52036;DHT22;38046;49.448;32.074;2023-04-24T10:46:43;15.80;61.60
52036;DHT22;38046;49.448;32.074;2023-04-24T10:49:09;15.80;61.10
52036;DHT22;38046;49.448;32.074;2023-04-24T10:51:48;15.80;61.00
52036;DHT22;38046;49.448;32.074;2023-04-24T11:00:19;15.90;59.60
52036;DHT22;38046;49.448;32.074;2023-04-24T11:02:47;16.00;58.50
52036;DHT22;38046;49.448;32.074;2023-04-24T11:05:19;16.00;58.00
52036;DHT22;38046;49.448;32.074;2023-04-24T11:08:26;16.10;57.50
52036;DHT22;38046;49.448;32.074;2023-04-24T11:18:59;16.30;57.80
52036;DHT22;38046;49.448;32.074;2023-04-24T11:21:27;16.30;58.70
52036;DHT22;38046;49.448;32.074;2023-04-24T11:23:56;16.30;58.10
52036;DHT22;38046;49.448;32.074;2023-04-24T11:26:22;16.30;58.30
52036;DHT22;38046;49.448;32.074;2023-04-24T11:29:06;16.30;58.60
52036;DHT22;38046;49.448;32.074;2023-04-24T11:31:40;16.40;59.20
52036;DHT22;38046;49.448;32.074;2023-04-24T11:34:14;16.40;59.00
52036;DHT22;38046;49.448;32.074;2023-04-24T11:36:44;16.40;59.20
52036;DHT22;38046;49.448;32.074;2023-04-24T11:39:12;16.40;58.80
52036;DHT22;38046;49.448;32.074;2023-04-24T11:41:38;16.40;58.50
52036;DHT22;38046;49.448;32.074;2023-04-24T11:44:06;16.40;58.40
52036;DHT22;38046;49.448;32.074;2023-04-24T11:46:32;16.50;58.60
52036;DHT22;38046;49.448;32.074;2023-04-24T11:48:58;16.50;58.50
52036;DHT22;38046;49.448;32.074;2023-04-24T11:51:26;16.50;58.10
52036;DHT22;38046;49.448;32.074;2023-04-24T11:53:56;16.60;58.00
52036;DHT22;38046;49.448;32.074;2023-04-24T11:56:23;16.60;58.10
52036;DHT22;38046;49.448;32.074;2023-04-24T11:58:52;16.50;58.00
52036;DHT22;38046;49.448;32.074;2023-04-24T12:01:19;16.50;57.80
52036;DHT22;38046;49.448;32.074;2023-04-24T12:03:48;16.50;57.70
52036;DHT22;38046;49.448;32.074;2023-04-24T12:06:14;16.50;57.80
52036;DHT22;38046;49.448;32.074;2023-04-24T12:08:40;16.40;57.70
52036;DHT22;38046;49.448;32.074;2023-04-24T12:11:06;16.40;57.80
52036;DHT22;38046;49.448;32.074;2023-04-24T12:13:33;16.40;57.30
52036;DHT22;38046;49.448;32.074;2023-04-24T12:16:01;16.40;57.30
52036;DHT22;38046;49.448;32.074;2023-04-24T12:18:27;16.40;57.40
52036;DHT22;38046;49.448;32.074;2023-04-24T12:20:52;16.30;57.30
52036;DHT22;38046;49.448;32.074;2023-04-24T12:23:37;16.30;57.10
52036;DHT22;38046;49.448;32.074;2023-04-24T12:26:06;16.40;57.00
52036;DHT22;38046;49.448;32.074;2023-04-24T12:28:35;16.40;57.10
52036;DHT22;38046;49.448;32.074;2023-04-24T12:31:02;16.40;57.00
52036;DHT22;38046;49.448;32.074;2023-04-24T12:33:28;16.40;56.70
52036;DHT22;38046;49.448;32.074;2023-04-24T12:35:57;16.40;56.60
52036;DHT22;38046;49.448;32.074;2023-04-24T12:38:26;16.40;56.60
52036;DHT22;38046;49.448;32.074;2023-04-24T12:41:13;16.40;56.50
52036;DHT22;38046;49.448;32.074;2023-04-24T12:43:53;16.50;56.40
52036;DHT22;38046;49.448;32.074;2023-04-24T12:46:20;16.50;56.30
52036;DHT22;38046;49.448;32.074;2023-04-24T12:48:45;16.50;56.20
52036;DHT22;38046;49.448;32.074;2023-04-24T12:51:11;16.60;55.70
52036;DHT22;38046;49.448;32.074;2023-04-24T12:53:37;16.60;55.40
52036;DHT22;38046;49.448;32.074;2023-04-24T12:56:02;16.60;55.10
52036;DHT22;38046;49.448;32.074;2023-04-24T12:58:28;16.60;54.90
52036;DHT22;38046;49.448;32.074;2023-04-24T13:00:54;16.70;54.70
52036;DHT22;38046;49.448;32.074;2023-04-24T13:03:20;16.70;54.40
52036;DHT22;38046;49.448;32.074;2023-04-24T13:05:45;16.70;54.30
52036;DHT22;38046;49.448;32.074;2023-04-24T13:08:11;16.70;54.20
52036;DHT22;38046;49.448;32.074;2023-04-24T13:10:38;16.70;54.20
52036;DHT22;38046;49.448;32.074;2023-04-24T13:13:05;16.80;54.00
52036;DHT22;38046;49.448;32.074;2023-04-24T13:15:30;16.70;53.90
52036;DHT22;38046;49.448;32.074;2023-04-24T13:17:56;16.80;53.90
52036;DHT22;38046;49.448;32.074;2023-04-24T13:20:22;16.80;53.90
52036;DHT22;38046;49.448;32.074;2023-04-24T13:22:47;16.80;53.90
52036;DHT22;38046;49.448;32.074;2023-04-24T13:25:13;16.80;54.00
52036;DHT22;38046;49.448;32.074;2023-04-24T13:27:42;16.80;54.20
52036;DHT22;38046;49.448;32.074;2023-04-24T13:30:08;16.80;53.90
52036;DHT22;38046;49.448;32.074;2023-04-24T13:32:33;16.80;53.90
52036;DHT22;38046;49.448;32.074;2023-04-24T13:35:00;16.80;53.90
52036;DHT22;38046;49.448;32.074;2023-04-24T13:37:26;16.80;53.90
52036;DHT22;38046;49.448;32.074;2023-04-24T13:39:51;16.80;53.90
52036;DHT22;38046;49.448;32.074;2023-04-24T13:42:17;16.70;54.00
52036;DHT22;38046;49.448;32.074;2023-04-24T13:44:44;16.70;54.20
52036;DHT22;38046;49.448;32.074;2023-04-24T13:47:09;16.70;54.50
52036;DHT22;38046;49.448;32.074;2023-04-24T13:49:35;16.70;54.70
52036;DHT22;38046;49.448;32.074;2023-04-24T13:52:02;16.70;54.70
52036;DHT22;38046;49.448;32.074;2023-04-24T13:54:27;16.70;54.80
52036;DHT22;38046;49.448;32.074;2023-04-24T13:56:55;16.70;54.80
52036;DHT22;38046;49.448;32.074;2023-04-24T13:59:21;16.60;54.80
52036;DHT22;38046;49.448;32.074;2023-04-24T14:01:47;16.70;55.00
52036;DHT22;38046;49.448;32.074;2023-04-24T14:04:13;16.70;55.20
52036;DHT22;38046;49.448;32.074;2023-04-24T14:06:38;16.70;55.50
52036;DHT22;38046;49.448;32.074;2023-04-24T14:09:04;16.70;55.70
52036;DHT22;38046;49.448;32.074;2023-04-24T14:11:29;16.70;55.80
52036;DHT22;38046;49.448;32.074;2023-04-24T14:13:55;16.70;55.90
52036;DHT22;38046;49.448;32.074;2023-04-24T14:16:24;16.70;56.00
52036;DHT22;38046;49.448;32.074;2023-04-24T14:18:50;16.60;55.90
52036;DHT22;38046;49.448;32.074;2023-04-24T14:21:16;16.60;56.10
52036;DHT22;38046;49.448;32.074;2023-04-24T14:23:41;16.60;56.30
52036;DHT22;38046;49.448;32.074;2023-04-24T14:26:07;16.60;56.20
52036;DHT22;38046;49.448;32.074;2023-04-24T14:28:33;16.60;56.20
52036;DHT22;38046;49.448;32.074;2023-04-24T14:30:59;16.60;56.20
52036;DHT22;38046;49.448;32.074;2023-04-24T14:33:25;16.60;56.50
52036;DHT22;38046;49.448;32.074;2023-04-24T14:35:51;16.50;56.60
52036;DHT22;38046;49.448;32.074;2023-04-24T14:38:16;16.50;56.70
52036;DHT22;38046;49.448;32.074;2023-04-24T14:40:42;16.50;56.90
52036;DHT22;38046;49.448;32.074;2023-04-24T14:43:08;16.50;56.60
52036;DHT22;38046;49.448;32.074;2023-04-24T14:45:33;16.50;56.20
52036;DHT22;38046;49.448;32.074;2023-04-24T14:47:59;16.50;56.30
52036;DHT22;38046;49.448;32.074;2023-04-24T14:50:25;16.50;56.30
52036;DHT22;38046;49.448;32.074;2023-04-24T14:52:54;16.50;56.30
52036;DHT22;38046;49.448;32.074;2023-04-24T14:55:22;16.60;56.90
52036;DHT22;38046;49.448;32.074;2023-04-24T14:57:48;16.60;56.30
52036;DHT22;38046;49.448;32.074;2023-04-24T15:00:14;16.60;56.10
52036;DHT22;38046;49.448;32.074;2023-04-24T15:02:42;16.60;56.00
52036;DHT22;38046;49.448;32.074;2023-04-24T15:05:09;16.60;56.00
52036;DHT22;38046;49.448;32.074;2023-04-24T15:07:35;16.60;55.80
52036;DHT22;38046;49.448;32.074;2023-04-24T15:13:37;16.60;55.20
52036;DHT22;38046;49.448;32.074;2023-04-24T15:16:03;16.60;55.50
52036;DHT22;38046;49.448;32.074;2023-04-24T15:18:28;16.60;55.40
52036;DHT22;38046;49.448;32.074;2023-04-24T15:20:55;16.60;55.60
52036;DHT22;38046;49.448;32.074;2023-04-24T15:23:21;16.60;55.60
52036;DHT22;38046;49.448;32.074;2023-04-24T15:25:46;16.60;55.80
52036;DHT22;38046;49.448;32.074;2023-04-24T15:28:12;16.60;55.90
52036;DHT22;38046;49.448;32.074;2023-04-24T15:30:38;16.60;55.90